Time;durP1;ratioP1;P1;durP2;ratioP2;P2;SDS_P1;SDS_P2;PMS_P1;PMS_P2;Temp;Humidity;BMP_temperature;BMP_pressure;BME280_temperature;BME280_humidity;BME280_pressure;Samples;Min_cycle;Max_cycle;Signal;HPM_P1;HPM_P2
2021/05/10 04:16:14;;;;;;;6.00;1.80;;;;;;;12.85;71.29;97765.84;5526658;23;20048;-70
2021/05/10 04:18:39;;;;;;;3.63;1.90;;;;;;;12.71;72.17;97775.13;4917196;29;20044;-70
2021/05/10 04:21:05;;;;;;;3.88;2.65;;;;;;;12.80;71.53;97769.53;4917181;29;20020;-70
2021/05/10 04:23:30;;;;;;;5.60;2.10;;;;;;;12.90;70.93;97760.44;4866138;29;20047;-71
2021/05/10 04:25:56;;;;;;;5.93;1.83;;;;;;;13.15;69.53;97743.75;4916865;29;20036;-70
2021/05/10 04:28:25;;;;;;;2.55;2.10;;;;;;;13.35;69.15;97772.38;4914274;29;20158;-70
2021/05/10 04:30:51;;;;;;;5.50;1.97;;;;;;;13.16;70.51;97774.91;4932020;23;20048;-70
2021/05/10 04:33:28;;;;;;;2.53;1.80;;;;;;;13.40;69.76;97786.00;4908142;29;20401;-69
2021/05/10 04:35:53;;;;;;;3.50;1.73;;;;;;;13.29;70.44;97783.84;4908333;29;20024;-69
2021/05/10 04:38:19;;;;;;;3.17;1.95;;;;;;;13.20;71.33;97778.19;4856985;29;20421;-69
2021/05/10 04:40:44;;;;;;;10.20;2.58;;;;;;;13.30;71.41;97789.94;4908209;29;20032;-69
2021/05/10 04:43:10;;;;;;;9.32;2.60;;;;;;;13.13;71.94;97788.88;4908717;29;20477;-69
2021/05/10 04:45:35;;;;;;;5.65;2.10;;;;;;;13.24;71.65;97795.38;4908123;29;20028;-69
2021/05/10 04:48:02;;;;;;;2.45;1.98;;;;;;;13.33;71.46;97789.78;4908118;29;20062;-69
2021/05/10 04:50:27;;;;;;;3.88;2.25;;;;;;;13.37;70.14;97791.34;4858046;29;21008;-69
2021/05/10 04:52:52;;;;;;;3.03;2.13;;;;;;;13.30;71.30;97790.78;4890912;29;20032;-69
2021/05/10 04:55:18;;;;;;;8.90;2.20;;;;;;;13.37;71.23;97765.31;4908097;29;20090;-69
2021/05/10 04:57:44;;;;;;;2.72;2.30;;;;;;;13.56;70.16;97755.75;4908077;29;20110;-69
2021/05/10 05:00:12;;;;;;;2.42;1.90;;;;;;;13.62;69.88;97750.25;4908586;29;20492;-70
2021/05/10 05:02:38;;;;;;;3.35;2.08;;;;;;;13.82;68.76;97764.09;4907832;29;20701;-69
2021/05/10 05:05:05;;;;;;;3.22;2.30;;;;;;;13.80;69.09;97763.34;4907926;29;20028;-69
2021/05/10 05:07:30;;;;;;;3.00;2.40;;;;;;;13.88;68.53;97766.41;4907890;29;20523;-69
2021/05/10 05:09:55;;;;;;;4.22;2.28;;;;;;;14.00;67.26;97768.44;4857934;29;20115;-69
2021/05/10 05:12:21;;;;;;;8.63;3.03;;;;;;;14.06;68.09;97755.09;4907912;29;20126;-69
2021/05/10 05:14:46;;;;;;;6.13;2.72;;;;;;;14.14;66.73;97773.81;4907577;29;20026;-69
2021/05/10 05:17:11;;;;;;;2.92;2.20;;;;;;;14.20;67.06;97756.19;4907690;29;20091;-69
2021/05/10 05:19:37;;;;;;;6.45;2.38;;;;;;;13.98;68.75;97757.25;4907599;29;20024;-69
2021/05/10 05:22:02;;;;;;;5.35;2.50;;;;;;;14.21;67.65;97789.13;4907225;29;20051;-69
2021/05/10 05:24:28;;;;;;;4.05;2.05;;;;;;;14.19;67.77;97786.63;4907534;29;20508;-70
2021/05/10 05:26:54;;;;;;;10.07;2.45;;;;;;;14.08;68.02;97778.50;4907394;29;20032;-70
2021/05/10 05:29:22;;;;;;;2.80;2.60;;;;;;;14.11;67.83;97796.56;4907182;29;20035;-70
2021/05/10 05:31:50;;;;;;;9.15;2.53;;;;;;;14.28;67.97;97780.97;4907368;29;20034;-70
2021/05/10 05:34:17;;;;;;;5.47;2.58;;;;;;;14.27;67.71;97773.22;4858279;29;20140;-69
2021/05/10 05:36:43;;;;;;;4.68;2.80;;;;;;;14.56;67.58;97796.13;4907153;29;20035;-69
2021/05/10 05:39:08;;;;;;;6.55;2.33;;;;;;;14.68;65.33;97793.81;4907340;29;20036;-67
2021/05/10 05:41:35;;;;;;;7.80;2.95;;;;;;;14.67;65.16;97782.53;4907374;29;20030;-67
2021/05/10 05:44:00;;;;;;;6.47;2.00;;;;;;;14.57;65.58;97792.59;4907550;29;20405;-68
2021/05/10 05:46:27;;;;;;;5.05;2.15;;;;;;;14.72;65.43;97784.91;4907359;29;20020;-68
2021/05/10 05:48:54;;;;;;;7.07;2.45;;;;;;;14.75;65.76;97784.78;4907631;29;20036;-68
2021/05/10 05:51:20;;;;;;;2.88;2.20;;;;;;;14.97;65.27;97795.78;4907540;29;20632;-68
2021/05/10 05:53:45;;;;;;;4.00;2.35;;;;;;;14.93;64.37;97807.28;4905152;29;20036;-68
2021/05/10 05:56:11;;;;;;;6.75;2.33;;;;;;;15.12;64.16;97800.19;4904050;29;20032;-68
2021/05/10 05:58:36;;;;;;;4.30;2.42;;;;;;;15.14;64.42;97803.59;4907067;29;20042;-68
2021/05/10 06:01:02;;;;;;;6.90;2.85;;;;;;;15.53;64.18;97810.22;4901896;29;20024;-68
2021/05/10 06:03:28;;;;;;;4.80;2.22;;;;;;;15.65;62.99;97801.75;4857635;29;20652;-68
2021/05/10 06:05:53;;;;;;;7.03;2.05;;;;;;;16.05;62.03;97807.44;4906676;29;20032;-68
2021/05/10 06:08:18;;;;;;;9.18;2.17;;;;;;;16.14;61.55;97825.19;4907135;29;20043;-68
2021/05/10 06:10:45;;;;;;;7.53;2.85;;;;;;;16.17;61.13;97830.25;4907466;29;20028;-68
2021/05/10 06:13:11;;;;;;;3.35;2.00;;;;;;;16.42;59.80;97847.16;4905951;29;20039;-68
2021/05/10 06:15:36;;;;;;;7.10;2.35;;;;;;;16.68;58.83;97863.97;4920314;29;21267;-68
2021/05/10 06:18:01;;;;;;;2.97;2.00;;;;;;;16.93;58.55;97863.47;4927826;29;20059;-68
2021/05/10 06:20:27;;;;;;;4.18;2.10;;;;;;;17.32;57.37;97875.13;4929629;29;20477;-68
2021/05/10 06:22:53;;;;;;;3.95;2.25;;;;;;;17.55;56.13;97879.81;4929872;29;20034;-68
2021/05/10 06:25:18;;;;;;;7.15;1.90;;;;;;;17.59;56.75;97878.69;4879707;29;20052;-68
2021/05/10 06:27:45;;;;;;;4.72;1.98;;;;;;;17.93;56.48;97874.00;4928715;29;20674;-68
2021/05/10 06:30:12;;;;;;;5.97;1.85;;;;;;;17.93;54.80;97871.38;4929277;29;20087;-68
2021/05/10 06:32:38;;;;;;;5.03;1.85;;;;;;;18.46;55.11;97869.78;4929295;29;20118;-68
2021/05/10 06:35:04;;;;;;;5.38;2.20;;;;;;;18.82;53.35;97873.63;4929435;29;20175;-68
2021/05/10 06:37:30;;;;;;;5.50;2.20;;;;;;;18.92;52.67;97877.31;4929694;29;20027;-68
2021/05/10 06:39:58;;;;;;;6.25;2.42;;;;;;;19.30;51.91;97866.03;4928660;29;20087;-68
2021/05/10 06:42:25;;;;;;;2.40;2.03;;;;;;;19.79;51.22;97883.69;4929460;29;20095;-68
2021/05/10 06:44:51;;;;;;;7.03;2.08;;;;;;;20.35;50.38;97881.44;4929312;29;20031;-68
2021/05/10 06:47:17;;;;;;;18.85;3.40;;;;;;;19.66;51.57;97881.06;4928998;29;20034;-68
2021/05/10 06:49:42;;;;;;;22.75;5.22;;;;;;;19.69;51.97;97870.34;4928703;29;20032;-68
2021/05/10 06:52:08;;;;;;;19.98;5.50;;;;;;;20.12;51.11;97873.44;4928742;29;20078;-68
2021/05/10 06:54:33;;;;;;;6.65;2.53;;;;;;;20.49;49.91;97878.69;4929240;29;20106;-68
2021/05/10 06:56:58;;;;;;;5.20;2.42;;;;;;;20.83;48.70;97865.66;4928945;29;20464;-68
2021/05/10 06:59:24;;;;;;;4.15;1.92;;;;;;;20.82;47.98;97864.00;4929202;29;20024;-68
2021/05/10 07:01:49;;;;;;;5.90;2.10;;;;;;;20.88;48.51;97874.91;4928251;29;20436;-68
2021/05/10 07:04:14;;;;;;;3.13;2.00;;;;;;;21.49;47.73;97877.38;4928618;29;20497;-68
2021/05/10 07:06:43;;;;;;;7.38;2.10;;;;;;;21.86;46.99;97879.81;4832223;29;20040;-68
2021/05/10 07:09:12;;;;;;;6.83;2.10;;;;;;;22.60;44.32;97883.53;4909477;29;20032;-68
2021/05/10 07:11:38;;;;;;;9.35;2.35;;;;;;;22.76;44.36;97898.97;4910109;29;21411;-68
2021/05/10 07:14:04;;;;;;;11.48;2.17;;;;;;;22.80;44.39;97911.81;4909056;29;20040;-68
2021/05/10 07:16:29;;;;;;;7.63;2.10;;;;;;;22.32;45.77;97927.16;4909860;29;20024;-68
2021/05/10 07:18:55;;;;;;;10.77;1.98;;;;;;;22.69;44.83;97935.63;4909717;29;20498;-68
2021/05/10 07:21:24;;;;;;;5.72;2.00;;;;;;;22.65;43.76;97939.47;4909630;29;20516;-68
2021/05/10 07:23:50;;;;;;;4.57;1.70;;;;;;;22.97;43.20;97949.25;4909652;29;20398;-68
2021/05/10 07:26:16;;;;;;;7.28;1.70;;;;;;;22.05;44.70;97951.28;4908559;29;20035;-68
2021/05/10 07:28:41;;;;;;;5.43;2.28;;;;;;;23.97;41.16;97949.69;4909259;29;20400;-69
2021/05/10 07:31:07;;;;;;;9.25;2.08;;;;;;;24.88;39.39;97961.97;4909345;29;20513;-69
2021/05/10 07:33:32;;;;;;;3.70;1.63;;;;;;;24.97;37.83;97961.16;4909532;29;20032;-69
2021/05/10 07:35:57;;;;;;;6.68;1.92;;;;;;;23.83;39.83;97958.78;4909362;29;20024;-69
2021/05/10 07:38:23;;;;;;;3.45;1.60;;;;;;;23.14;40.99;97964.56;4908762;29;21317;-69
2021/05/10 07:40:48;;;;;;;10.18;2.28;;;;;;;23.59;40.22;97964.31;4909495;29;20028;-69
2021/05/10 07:43:13;;;;;;;9.25;3.45;;;;;;;25.05;37.92;97971.06;4909461;29;21325;-69
2021/05/10 07:45:39;;;;;;;13.10;2.83;;;;;;;26.89;35.13;97974.13;4909277;29;20036;-69
2021/05/10 07:48:05;;;;;;;4.15;1.90;;;;;;;28.00;33.27;97963.13;4908834;29;20035;-69
2021/05/10 07:50:30;;;;;;;5.07;2.03;;;;;;;29.08;31.21;97961.56;4909032;29;20036;-69
2021/05/10 07:52:56;;;;;;;3.42;1.70;;;;;;;28.82;31.41;97975.81;4909196;29;20643;-69
2021/05/10 07:55:22;;;;;;;3.53;1.70;;;;;;;27.19;32.92;97985.41;4909100;29;20168;-69
2021/05/10 07:57:48;;;;;;;2.65;1.10;;;;;;;26.95;34.25;97977.16;4908716;29;20067;-69
2021/05/10 08:00:17;;;;;;;2.78;1.35;;;;;;;26.35;34.80;97981.09;4907276;29;20155;-67
2021/05/10 08:02:43;;;;;;;;;;;;;;;25.77;35.19;97986.59;4908303;29;20038;-68
2021/05/10 08:05:10;;;;;;;5.85;1.25;;;;;;;24.48;36.66;98001.78;4908931;29;19931;-68
2021/05/10 08:07:36;;;;;;;2.50;1.45;;;;;;;23.75;40.39;97993.84;4908851;29;20028;-68
2021/05/10 08:10:02;;;;;;;5.60;1.30;;;;;;;24.35;38.96;97997.50;4906626;29;20029;-68
2021/05/10 08:12:28;;;;;;;2.20;1.42;;;;;;;23.05;41.76;98004.94;4907316;29;20144;-68
2021/05/10 08:14:53;;;;;;;3.10;1.20;;;;;;;22.38;42.32;98007.66;4908645;29;20041;-68
2021/05/10 08:17:19;;;;;;;2.55;1.50;;;;;;;22.60;42.69;97996.25;4908746;29;20915;-68
2021/05/10 08:19:45;;;;;;;3.15;1.55;;;;;;;22.53;43.02;97987.97;4908714;29;20282;-68
2021/05/10 08:22:10;;;;;;;3.08;1.60;;;;;;;22.62;43.65;97976.66;4908241;29;20107;-68
2021/05/10 08:24:36;;;;;;;4.68;1.45;;;;;;;22.43;43.35;97969.38;4907976;29;21247;-68
2021/05/10 08:27:01;;;;;;;4.55;1.70;;;;;;;24.26;39.35;97961.22;4908313;29;21277;-68
2021/05/10 08:29:26;;;;;;;3.40;1.25;;;;;;;26.56;35.32;97966.78;4908305;29;20059;-68
2021/05/10 08:31:52;;;;;;;1.52;1.10;;;;;;;30.09;30.49;97961.19;4908486;29;20028;-68
2021/05/10 08:34:18;;;;;;;2.05;1.00;;;;;;;27.95;33.01;97965.38;4908381;29;20059;-68
2021/05/10 08:36:45;;;;;;;3.97;1.77;;;;;;;31.23;27.95;97963.34;4908480;29;20118;-68
2021/05/10 08:39:10;;;;;;;4.95;1.30;;;;;;;31.54;27.12;97982.06;4908512;29;20043;-68
2021/05/10 08:41:40;;;;;;;4.95;1.48;;;;;;;28.97;30.97;97984.06;4908210;29;20040;-68
2021/05/10 08:44:07;;;;;;;2.47;1.17;;;;;;;26.58;34.99;97980.72;4907436;29;20096;-68
2021/05/10 08:46:33;;;;;;;3.47;1.20;;;;;;;25.94;36.68;97976.22;4907614;29;20096;-68
2021/05/10 08:48:59;;;;;;;3.15;1.23;;;;;;;26.29;35.75;97986.16;4907859;29;20126;-68
2021/05/10 08:51:25;;;;;;;24.30;17.90;;;;;;;26.47;36.58;97987.09;4908358;29;20481;-68
2021/05/10 08:53:51;;;;;;;3.10;1.35;;;;;;;25.75;37.98;97993.84;4908134;29;20500;-68
2021/05/10 08:56:16;;;;;;;4.68;1.40;;;;;;;25.77;38.33;97981.28;4908223;29;20028;-68
2021/05/10 08:58:46;;;;;;;6.28;1.75;;;;;;;25.44;38.70;97984.38;4906623;29;20504;-68
2021/05/10 09:01:12;;;;;;;3.72;1.48;;;;;;;28.37;33.56;97982.31;4907792;29;20028;-68
2021/05/10 09:03:44;;;;;;;6.43;1.60;;;;;;;30.30;30.35;97974.03;4907228;29;20036;-68
2021/05/10 09:06:14;;;;;;;6.85;1.58;;;;;;;29.19;31.17;97983.41;4908102;29;20445;-68
2021/05/10 09:08:41;;;;;;;11.00;1.70;;;;;;;28.59;33.05;97985.41;4908019;29;20032;-68
2021/05/10 09:11:18;;;;;;;4.00;1.27;;;;;;;27.58;34.22;97969.94;4906590;29;20043;-68
2021/05/10 09:13:46;;;;;;;6.78;2.22;;;;;;;26.64;36.00;97980.13;4907300;29;20039;-68
2021/05/10 09:16:14;;;;;;;2.97;1.33;;;;;;;25.60;38.61;97979.31;4907460;29;20532;-68
2021/05/10 09:18:49;;;;;;;7.82;1.55;;;;;;;26.03;38.03;97991.28;4907700;29;20046;-68
2021/05/10 09:21:20;;;;;;;7.97;1.60;;;;;;;26.35;36.50;98006.81;4906891;29;20127;-68
2021/05/10 09:23:46;;;;;;;5.65;1.27;;;;;;;25.22;38.13;98007.53;4907154;29;20039;-68
2021/05/10 09:26:12;;;;;;;2.92;1.40;;;;;;;25.15;38.80;98010.88;4907229;29;20028;-68
2021/05/10 09:28:42;;;;;;;4.85;1.70;;;;;;;25.18;39.18;98010.59;4907884;29;20032;-68
2021/05/10 09:31:10;;;;;;;4.50;1.50;;;;;;;23.92;41.25;98025.97;4907355;29;20036;-68
2021/05/10 09:33:41;;;;;;;4.82;1.42;;;;;;;25.22;39.16;98026.09;4906629;29;20074;-68
2021/05/10 09:36:07;;;;;;;5.97;1.23;;;;;;;25.03;40.30;98026.88;4905656;29;20039;-68
2021/05/10 09:38:35;;;;;;;4.18;1.60;;;;;;;23.58;42.54;98028.78;4907048;29;20032;-68
2021/05/10 09:41:03;;;;;;;2.78;1.10;;;;;;;24.52;41.27;98024.38;4906444;29;20486;-68
2021/05/10 09:43:36;;;;;;;7.10;2.00;;;;;;;23.87;42.13;98022.88;4907578;29;20032;-68
2021/05/10 09:46:11;;;;;;;5.15;1.60;;;;;;;24.91;39.91;98029.78;4906390;29;20028;-68
2021/05/10 09:48:39;;;;;;;6.97;1.73;;;;;;;26.32;36.97;98020.41;4907387;29;20111;-68
2021/05/10 09:51:12;;;;;;;5.03;1.50;;;;;;;27.51;35.90;98037.25;4908951;29;20035;-68
2021/05/10 09:53:45;;;;;;;3.90;1.83;;;;;;;26.20;38.09;98027.69;4913419;29;20039;-68
2021/05/10 09:56:27;;;;;;;5.50;1.45;;;;;;;26.94;36.69;98031.34;4913093;29;20103;-68
2021/05/10 09:59:15;;;;;;;3.28;1.05;;;;;;;27.12;35.42;98027.72;4913375;29;20667;-68
2021/05/10 10:01:45;;;;;;;3.00;1.38;;;;;;;24.15;39.85;98048.69;4913900;29;20036;-68
2021/05/10 10:04:15;;;;;;;4.38;1.20;;;;;;;24.42;40.95;98034.06;4913191;29;20059;-67
2021/05/10 10:06:41;;;;;;;8.60;1.30;;;;;;;26.69;36.93;98041.69;4913270;29;20564;-68
2021/05/10 10:09:07;;;;;;;4.55;1.38;;;;;;;27.50;35.53;98043.56;4912409;29;20044;-67
2021/05/10 10:11:32;;;;;;;1.50;0.80;;;;;;;27.06;35.00;98051.41;4913249;29;20038;-68
2021/05/10 10:14:01;;;;;;;3.83;0.95;;;;;;;25.93;36.51;98056.84;4913167;29;20433;-68
2021/05/10 10:16:29;;;;;;;0.95;0.82;;;;;;;25.57;37.21;98052.06;4913197;29;20043;-68
2021/05/10 10:18:59;;;;;;;3.83;1.42;;;;;;;26.84;36.36;98045.53;4913636;29;20023;-67
2021/05/10 10:21:25;;;;;;;5.38;0.93;;;;;;;27.03;34.35;98051.69;4912722;29;20392;-69
2021/05/10 10:24:03;;;;;;;1.77;1.00;;;;;;;27.03;34.34;98043.72;4913252;29;20027;-68
2021/05/10 10:26:29;;;;;;;3.08;0.70;;;;;;;25.27;37.25;98063.63;4913207;29;20028;-68
2021/05/10 10:28:57;;;;;;;1.85;0.80;;;;;;;25.26;36.64;98064.63;4913507;29;20028;-68
2021/05/10 10:31:33;;;;;;;2.55;1.05;;;;;;;24.95;38.54;98070.94;4951409;23;21354;-68
2021/05/10 10:34:03;;;;;;;3.42;0.80;;;;;;;24.35;39.35;98087.53;4913239;29;20110;-68
2021/05/10 10:36:32;;;;;;;1.92;0.63;;;;;;;24.01;39.73;98088.72;4913619;29;20107;-68
2021/05/10 10:39:13;;;;;;;2.47;1.00;;;;;;;24.38;38.76;98096.25;4896492;29;21324;-68
2021/05/10 10:42:13;;;;;;;3.50;0.77;;;;;;;23.83;39.45;98115.75;4913805;29;20513;-68
2021/05/10 10:44:52;;;;;;;0.77;0.77;;;;;;;22.62;42.77;98127.19;4911439;29;20091;-68
2021/05/10 10:47:43;;;;;;;4.53;1.00;;;;;;;23.45;40.72;98136.53;4912850;29;20397;-68
2021/05/10 10:50:22;;;;;;;1.40;1.05;;;;;;;22.42;42.42;98149.03;4912947;29;20099;-68
2021/05/10 10:52:59;;;;;;;1.63;0.70;;;;;;;23.00;41.93;98144.53;4913100;29;20072;-67
2021/05/10 10:55:30;;;;;;;1.63;0.75;;;;;;;23.18;42.40;98127.22;4911799;29;21259;-68
2021/05/10 10:58:22;;;;;;;4.47;0.90;;;;;;;23.84;41.18;98109.50;4912707;29;20056;-67
2021/05/10 11:00:56;;;;;;;2.55;0.85;;;;;;;24.10;40.49;98111.78;4909798;29;20068;-67
2021/05/10 11:03:23;;;;;;;1.23;0.82;;;;;;;23.94;40.24;98114.03;4910321;29;20038;-68
2021/05/10 11:05:48;;;;;;;1.08;0.82;;;;;;;24.36;40.53;98110.41;4909178;29;20040;-67
2021/05/10 11:08:14;;;;;;;4.65;1.27;;;;;;;25.46;37.67;98120.34;4908999;29;20039;-67
2021/05/10 11:10:52;;;;;;;2.15;0.70;;;;;;;24.34;40.35;98107.03;4909674;29;20075;-66
2021/05/10 11:13:27;;;;;;;2.63;0.80;;;;;;;24.53;40.10;98110.81;4909913;29;20040;-67
2021/05/10 11:15:56;;;;;;;1.67;0.90;;;;;;;24.01;41.01;98117.84;4909875;29;20398;-66
2021/05/10 11:19:04;;;;;;;3.80;0.70;;;;;;;22.91;42.91;98129.41;4909429;29;20100;-67
2021/05/10 11:21:30;;;;;;;0.57;0.50;;;;;;;22.29;44.79;98123.56;4851146;29;20053;-67
2021/05/10 11:24:00;;;;;;;1.70;0.63;;;;;;;22.11;44.40;98130.25;4851160;29;20046;-67
2021/05/10 11:26:51;;;;;;;1.67;0.70;;;;;;;22.00;44.47;98140.72;4881326;29;20051;-66
2021/05/10 11:29:26;;;;;;;3.85;0.82;;;;;;;21.67;45.38;98157.25;4909724;29;20043;-66
2021/05/10 11:32:18;;;;;;;1.02;0.70;;;;;;;21.89;44.71;98151.22;4903498;29;20584;-66
2021/05/10 11:34:44;;;;;;;1.95;0.93;;;;;;;21.74;44.74;98164.59;4909186;29;20481;-66
2021/05/10 11:37:10;;;;;;;2.08;0.60;;;;;;;21.55;45.80;98161.63;4909226;29;21028;-67
2021/05/10 11:39:40;;;;;;;2.50;0.70;;;;;;;21.21;46.29;98171.91;4902713;29;20039;-67
2021/05/10 11:42:12;;;;;;;1.25;0.70;;;;;;;21.27;47.55;98182.03;4909574;29;20032;-66
2021/05/10 11:44:43;;;;;;;2.45;0.82;;;;;;;21.04;46.39;98196.00;4908659;29;20117;-66
2021/05/10 11:47:13;;;;;;;0.50;0.50;;;;;;;20.87;46.88;98199.78;4908484;29;20028;-66
2021/05/10 11:49:46;;;;;;;0.55;0.50;;;;;;;21.22;45.89;98193.84;4908913;29;20052;-67
2021/05/10 11:52:19;;;;;;;3.55;0.77;;;;;;;21.11;45.66;98207.78;4909251;29;20040;-67
2021/05/10 11:54:48;;;;;;;0.60;0.60;;;;;;;20.71;47.04;98202.63;4909198;29;20974;-66
2021/05/10 11:57:16;;;;;;;4.60;1.00;;;;;;;21.13;45.49;98200.63;4907922;29;20063;-66
2021/05/10 11:59:47;;;;;;;1.25;0.55;;;;;;;21.23;45.40;98191.13;4908851;29;21447;-66
2021/05/10 12:02:18;;;;;;;5.78;0.60;;;;;;;21.40;44.25;98189.09;4908837;29;20036;-67
2021/05/10 12:04:47;;;;;;;1.10;0.60;;;;;;;21.08;45.33;98192.19;4908683;29;20508;-66
2021/05/10 12:07:13;;;;;;;0.40;0.40;;;;;;;21.34;44.53;98189.53;4907991;29;20038;-66
2021/05/10 12:09:38;;;;;;;0.93;0.60;;;;;;;21.29;45.86;98195.94;4907633;29;20634;-67
2021/05/10 12:12:23;;;;;;;1.05;0.55;;;;;;;20.95;45.47;98201.91;4908759;29;20058;-67
2021/05/10 12:14:58;;;;;;;2.95;0.52;;;;;;;21.52;45.52;98201.41;4855973;29;20059;-66
2021/05/10 12:17:28;;;;;;;7.38;1.25;;;;;;;21.35;45.04;98201.75;4883992;29;20147;-66
2021/05/10 12:19:57;;;;;;;2.08;0.60;;;;;;;21.01;45.73;98201.47;4889201;29;20080;-66
2021/05/10 12:22:38;;;;;;;1.45;0.60;;;;;;;21.16;45.30;98200.38;4889315;29;20063;-66
2021/05/10 12:25:10;;;;;;;0.55;0.40;;;;;;;21.08;44.66;98192.19;4889673;29;20112;-66
2021/05/10 12:28:02;;;;;;;5.50;0.77;;;;;;;21.14;45.11;98193.56;4883836;29;20111;-66
2021/05/10 12:30:37;;;;;;;0.40;0.40;;;;;;;21.68;44.96;98201.97;4889226;29;20032;-66
2021/05/10 12:33:03;;;;;;;0.75;0.47;;;;;;;21.23;45.26;98193.75;4886923;29;20048;-66
2021/05/10 12:35:31;;;;;;;1.23;0.43;;;;;;;21.33;45.28;98190.50;4889494;29;20085;-67
2021/05/10 12:37:58;;;;;;;1.25;0.40;;;;;;;20.82;45.76;98195.78;4885485;29;20114;-67
2021/05/10 12:40:27;;;;;;;0.52;0.40;;;;;;;20.87;45.05;98209.47;4889122;29;20033;-66
2021/05/10 12:43:13;;;;;;;0.70;0.43;;;;;;;20.48;46.58;98203.34;4887626;29;20502;-66
2021/05/10 12:45:43;;;;;;;1.80;0.47;;;;;;;20.72;45.55;98201.69;4888894;29;20287;-67
2021/05/10 12:48:11;;;;;;;1.25;0.40;;;;;;;20.78;45.60;98198.63;4883123;29;20375;-66
2021/05/10 12:50:45;;;;;;;1.75;0.50;;;;;;;20.81;44.91;98199.38;4887058;29;20033;-66
2021/05/10 12:53:10;;;;;;;0.45;0.40;;;;;;;20.71;44.74;98191.28;4885321;29;20044;-67
2021/05/10 12:55:39;;;;;;;1.27;0.50;;;;;;;19.91;45.41;98182.56;4888126;29;20398;-69
2021/05/10 12:58:22;;;;;;;0.30;0.30;;;;;;;19.87;45.77;98173.19;4883507;29;20095;-69
2021/05/10 13:00:48;;;;;;;0.70;0.30;;;;;;;19.55;45.15;98175.28;4870264;29;20024;-69
2021/05/10 13:03:27;;;;;;;3.40;0.40;;;;;;;20.29;45.31;98183.50;4877442;29;20451;-69
2021/05/10 13:05:52;;;;;;;0.25;0.20;;;;;;;21.12;43.24;98177.00;4888633;29;20828;-66
2021/05/10 13:08:36;;;;;;;1.90;0.40;;;;;;;20.93;42.46;98182.72;4883020;29;20036;-68
2021/05/10 13:11:03;;;;;;;10.50;0.95;;;;;;;20.99;42.02;98174.41;4886742;29;20743;-69
2021/05/10 13:13:56;;;;;;;0.30;0.30;;;;;;;20.99;42.58;98177.03;4883294;29;20064;-70
2021/05/10 13:22:48;;;;;;;0.73;0.28;;;;;;;21.21;43.25;98174.56;4886872;29;20048;-71
2021/05/10 13:32:55;;;;;;;1.52;0.40;;;;;;;21.96;42.20;98184.13;4888475;29;20132;-67
2021/05/10 13:38:07;;;;;;;2.45;0.50;;;;;;;21.74;40.70;98196.25;4883443;29;20052;-67
2021/05/10 13:40:32;;;;;;;0.70;0.30;;;;;;;21.19;41.68;98197.53;4887902;29;20632;-67
2021/05/10 13:43:06;;;;;;;0.40;0.40;;;;;;;21.47;41.48;98195.63;4887409;29;20044;-66
2021/05/10 13:45:31;;;;;;;1.63;0.40;;;;;;;21.16;42.14;98199.53;4886876;29;20048;-67
2021/05/10 13:47:57;;;;;;;1.00;0.28;;;;;;;21.36;42.92;98201.63;4884433;29;20028;-67
2021/05/10 13:50:22;;;;;;;0.47;0.40;;;;;;;21.39;41.91;98205.88;4885369;29;20611;-67
2021/05/10 13:52:47;;;;;;;0.40;0.40;;;;;;;21.21;41.75;98206.16;4888051;29;20444;-67
2021/05/10 13:55:13;;;;;;;1.05;0.30;;;;;;;21.12;42.39;98198.91;4887721;29;20501;-67
2021/05/10 13:57:38;;;;;;;0.20;0.20;;;;;;;21.32;42.46;98196.69;4882253;29;20115;-66
2021/05/10 14:00:04;;;;;;;0.50;0.47;;;;;;;21.24;43.36;98198.06;4887325;29;20099;-67
2021/05/10 14:02:29;;;;;;;1.17;0.20;;;;;;;20.82;44.05;98198.41;4886118;29;20036;-69
2021/05/10 14:04:55;;;;;;;0.50;0.47;;;;;;;20.98;43.74;98191.13;4860195;29;20404;-67
2021/05/10 14:07:20;;;;;;;0.63;0.30;;;;;;;21.00;45.13;98189.25;4881896;29;20037;-68
2021/05/10 14:09:45;;;;;;;0.93;0.50;;;;;;;20.46;45.98;98194.69;4887910;29;20119;-68
2021/05/10 14:12:11;;;;;;;1.60;0.55;;;;;;;21.12;44.32;98193.63;4887597;29;20028;-67
2021/05/10 14:14:36;;;;;;;1.33;0.52;;;;;;;21.09;44.80;98182.50;4888176;29;20024;-68
2021/05/10 14:17:01;;;;;;;0.88;0.40;;;;;;;21.03;44.37;98183.75;4886361;29;20028;-68
2021/05/10 14:19:26;;;;;;;3.92;0.68;;;;;;;21.01;44.84;98180.38;4887472;29;20175;-68
2021/05/10 14:24:23;;;;;;;1.55;0.73;;;;;;;20.96;44.67;98171.97;4887418;29;20040;-68
2021/05/10 14:26:49;;;;;;;1.77;0.60;;;;;;;20.50;46.64;98175.13;4886548;29;20389;-68
2021/05/10 14:29:15;;;;;;;1.10;0.60;;;;;;;19.81;47.88;98186.75;4886173;29;20032;-68
2021/05/10 14:31:41;;;;;;;2.55;0.50;;;;;;;18.84;49.59;98178.81;4887871;29;20398;-68
2021/05/10 14:34:07;;;;;;;4.00;0.47;;;;;;;19.06;49.35;98163.44;4887943;29;20130;-68
2021/05/10 14:36:34;;;;;;;1.02;0.50;;;;;;;18.53;50.35;98158.84;4887897;29;20036;-68
2021/05/10 14:39:01;;;;;;;0.40;0.40;;;;;;;18.11;51.80;98158.66;4890004;29;20033;-68
2021/05/10 14:41:27;;;;;;;3.33;0.50;;;;;;;18.52;51.28;98160.63;4890590;29;20490;-68
2021/05/10 14:43:52;;;;;;;0.93;0.40;;;;;;;19.10;49.49;98158.81;4890729;29;20092;-68
2021/05/10 14:46:17;;;;;;;4.38;0.25;;;;;;;18.81;49.70;98163.25;4891349;29;20745;-68
2021/05/10 14:48:43;;;;;;;3.20;0.50;;;;;;;18.62;49.83;98169.63;4891496;29;20063;-68
2021/05/10 14:51:08;;;;;;;0.32;0.32;;;;;;;18.08;51.53;98177.16;4890849;29;20514;-68
2021/05/10 14:53:33;;;;;;;0.95;0.35;;;;;;;18.10;51.47;98183.19;4890787;29;20047;-70
2021/05/10 14:55:59;;;;;;;1.92;0.30;;;;;;;18.15;51.57;98178.53;4891305;29;20558;-68
2021/05/10 14:58:24;;;;;;;0.30;0.30;;;;;;;18.34;51.72;98174.81;4890515;29;20036;-68
2021/05/10 15:00:50;;;;;;;0.30;0.22;;;;;;;18.99;50.40;98167.38;4874323;29;20030;-68
2021/05/10 15:03:16;;;;;;;0.55;0.28;;;;;;;19.06;50.49;98163.44;4890665;29;20084;-68
2021/05/10 15:05:42;;;;;;;0.55;0.30;;;;;;;18.59;51.22;98175.03;4890925;29;20719;-68
2021/05/10 15:08:08;;;;;;;2.10;0.30;;;;;;;18.96;50.91;98188.59;4890372;29;20047;-68
2021/05/10 15:10:36;;;;;;;1.75;0.30;;;;;;;18.44;51.73;98191.69;4891071;29;20502;-68
2021/05/10 15:13:02;;;;;;;0.50;0.20;;;;;;;18.20;51.50;98189.59;4889309;29;20048;-68
2021/05/10 15:15:27;;;;;;;3.25;0.90;;;;;;;18.10;53.53;98183.19;4889758;29;20277;-68
2021/05/10 15:17:53;;;;;;;2.65;0.35;;;;;;;18.71;51.92;98179.59;4873872;29;21464;-68
2021/05/10 15:20:19;;;;;;;0.75;0.30;;;;;;;18.44;51.84;98182.06;4891239;29;20024;-68
2021/05/10 15:22:46;;;;;;;0.57;0.40;;;;;;;18.36;52.82;98194.75;4890650;29;20410;-68
2021/05/10 15:25:12;;;;;;;1.00;0.40;;;;;;;18.15;53.13;98194.25;4890540;29;20032;-68
2021/05/10 15:27:38;;;;;;;0.93;0.40;;;;;;;18.65;51.63;98185.16;4890418;29;20044;-69
2021/05/10 15:30:05;;;;;;;2.95;0.40;;;;;;;17.94;52.82;98198.13;4890396;29;20414;-69
2021/05/10 15:32:30;;;;;;;0.85;0.55;;;;;;;17.54;54.13;98189.00;4889711;29;20111;-68
2021/05/10 15:34:55;;;;;;;3.72;0.35;;;;;;;18.11;54.45;98186.66;4890604;29;20056;-68
2021/05/10 15:37:21;;;;;;;1.00;0.30;;;;;;;17.78;53.69;98186.81;4858150;29;20124;-72
2021/05/10 15:39:47;;;;;;;0.30;0.30;;;;;;;17.46;55.00;98190.28;4890520;29;20024;-68
2021/05/10 15:42:13;;;;;;;0.30;0.30;;;;;;;17.35;55.09;98194.41;4890776;29;20367;-68
2021/05/10 15:44:38;;;;;;;0.40;0.40;;;;;;;17.24;55.24;98192.38;4890683;29;20087;-68
2021/05/10 15:47:04;;;;;;;0.38;0.38;;;;;;;17.73;56.06;98195.75;4890213;29;20033;-68
2021/05/10 15:49:29;;;;;;;1.85;0.50;;;;;;;17.51;56.08;98197.03;4873182;29;20039;-68
2021/05/10 15:51:54;;;;;;;3.03;0.40;;;;;;;18.02;55.05;98185.41;4889001;29;20119;-68
2021/05/10 15:54:20;;;;;;;0.40;0.40;;;;;;;18.05;54.44;98189.63;4890497;29;20115;-68
2021/05/10 15:56:47;;;;;;;0.40;0.32;;;;;;;17.03;56.60;98185.69;4890222;29;20032;-68
2021/05/10 15:59:12;;;;;;;0.63;0.30;;;;;;;17.38;56.19;98187.22;4890234;29;20041;-68
2021/05/10 16:01:39;;;;;;;1.15;0.40;;;;;;;17.47;56.28;98198.97;4889937;29;20035;-68
2021/05/10 16:04:05;;;;;;;0.25;0.25;;;;;;;17.29;56.01;98194.75;4890118;29;20041;-68
2021/05/10 16:06:30;;;;;;;0.30;0.30;;;;;;;17.05;56.43;98191.69;4889913;29;20032;-68
2021/05/10 16:08:56;;;;;;;20.08;11.27;;;;;;;17.38;56.33;98183.78;4890113;29;20033;-68
2021/05/10 16:11:22;;;;;;;0.52;0.32;;;;;;;16.74;57.50;98197.69;4889814;29;20083;-68
2021/05/10 16:13:47;;;;;;;0.90;0.35;;;;;;;16.74;57.49;98179.38;4889746;29;20040;-68